createdAt,value
2017-12-03T00:01:26.377Z,6.6
2017-12-03T00:02:26.658Z,6.6
2017-12-03T00:03:26.004Z,6.6
2017-12-03T00:04:33.825Z,6.7
2017-12-03T00:05:27.547Z,6.5
2017-12-03T00:07:25.515Z,6.8
2017-12-03T00:08:28.060Z,6.3
2017-12-03T00:09:28.926Z,6.5
2017-12-03T00:10:27.737Z,6.0
2017-12-03T00:11:25.835Z,6.5
2017-12-03T00:12:26.129Z,6.2
2017-12-03T00:14:27.601Z,6.2
2017-12-03T00:15:26.407Z,6.5
2017-12-03T00:16:27.058Z,6.5
2017-12-03T00:17:25.830Z,6.5
2017-12-03T00:18:25.323Z,6.2
2017-12-03T00:19:26.305Z,6.0
2017-12-03T00:20:26.684Z,6.2
2017-12-03T00:21:27.134Z,6.5
2017-12-03T00:22:25.493Z,6.2
2017-12-03T00:23:25.744Z,6.2
2017-12-03T00:24:25.322Z,6.5
2017-12-03T00:25:25.562Z,6.1
2017-12-03T00:26:27.410Z,6.2
2017-12-03T00:27:28.328Z,6.6
2017-12-03T00:28:26.367Z,6.3
2017-12-03T00:30:25.963Z,6.2
2017-12-03T00:31:26.228Z,6.3
2017-12-03T00:32:25.468Z,6.5
2017-12-03T00:33:26.475Z,6.0
2017-12-03T00:34:26.718Z,6.2
2017-12-03T00:35:28.301Z,6.7
2017-12-03T00:36:27.396Z,6.1
2017-12-03T00:37:27.168Z,6.1
2017-12-03T00:38:26.270Z,6.3
2017-12-03T00:39:25.474Z,6.0
2017-12-03T00:40:25.453Z,5.9
2017-12-03T00:41:26.396Z,6.1
2017-12-03T00:42:26.165Z,6.3
2017-12-03T00:43:25.842Z,6.3
2017-12-03T00:44:25.271Z,6.1
2017-12-03T00:45:26.115Z,5.9
2017-12-03T00:46:27.983Z,5.8
2017-12-03T00:47:25.960Z,5.8
2017-12-03T00:48:26.411Z,5.9
2017-12-03T00:49:25.340Z,6.1
2017-12-03T00:50:26.379Z,5.9
2017-12-03T00:51:27.080Z,5.9
2017-12-03T00:52:25.345Z,6.2
2017-12-03T00:53:26.076Z,6.2
2017-12-03T00:54:26.811Z,6.0
2017-12-03T00:56:26.165Z,6.1
2017-12-03T00:58:25.571Z,6.1
2017-12-03T00:59:25.572Z,6.2
2017-12-03T01:00:25.547Z,5.9
2017-12-03T01:01:26.434Z,6.0
2017-12-03T01:02:25.531Z,5.7
2017-12-03T01:03:25.547Z,6.2
2017-12-03T01:04:25.528Z,5.8
2017-12-03T01:05:27.632Z,5.9
2017-12-03T01:06:26.172Z,6.1
2017-12-03T01:07:25.352Z,5.7
2017-12-03T01:08:26.823Z,6.0
2017-12-03T01:09:25.834Z,5.8
2017-12-03T01:10:25.528Z,5.7
2017-12-03T01:11:26.707Z,5.5
2017-12-03T01:12:25.550Z,5.7
2017-12-03T01:13:26.201Z,6.0
2017-12-03T01:14:29.815Z,5.6
2017-12-03T01:15:25.545Z,5.4
2017-12-03T01:16:26.144Z,5.7
2017-12-03T01:17:26.969Z,5.6
2017-12-03T01:18:26.423Z,5.5
2017-12-03T01:19:29.181Z,5.5
2017-12-03T01:20:26.143Z,5.5
2017-12-03T01:21:25.533Z,5.7
2017-12-03T01:22:26.045Z,5.8
2017-12-03T01:23:25.977Z,5.6
2017-12-03T01:24:27.561Z,5.7
2017-12-03T01:25:25.555Z,5.4
2017-12-03T01:26:25.392Z,5.6
2017-12-03T01:27:27.830Z,5.6
2017-12-03T01:28:26.702Z,5.3
2017-12-03T01:29:25.876Z,5.6
2017-12-03T01:30:26.546Z,5.7
2017-12-03T01:31:25.883Z,5.9
2017-12-03T01:32:25.619Z,5.5
2017-12-03T01:33:25.407Z,5.9
2017-12-03T01:34:26.143Z,5.6
2017-12-03T01:35:25.986Z,5.5
2017-12-03T01:36:25.911Z,5.9
2017-12-03T01:37:26.826Z,5.2
2017-12-03T01:38:25.853Z,5.6
2017-12-03T01:39:42.105Z,5.4
2017-12-03T01:40:25.794Z,5.6
2017-12-03T01:41:26.362Z,5.7
2017-12-03T01:42:27.736Z,5.9
2017-12-03T01:43:26.347Z,5.7
2017-12-03T01:44:25.881Z,5.5
2017-12-03T01:45:25.948Z,5.6
2017-12-03T01:46:42.698Z,5.8
2017-12-03T01:47:25.891Z,5.5
2017-12-03T01:48:26.554Z,5.7
2017-12-03T01:49:25.915Z,5.7
2017-12-03T01:50:27.185Z,5.6
2017-12-03T01:51:25.699Z,5.7
2017-12-03T01:52:26.496Z,5.5
2017-12-03T01:53:25.630Z,5.7
2017-12-03T01:54:26.399Z,5.2
2017-12-03T01:55:26.921Z,5.3
2017-12-03T01:56:25.969Z,6.1
2017-12-03T01:57:26.614Z,5.8
2017-12-03T01:58:27.478Z,5.3
2017-12-03T01:59:26.931Z,5.4
2017-12-03T02:00:25.636Z,5.6
2017-12-03T02:01:27.660Z,5.4
2017-12-03T02:03:25.896Z,5.6
2017-12-03T02:04:25.842Z,5.6
2017-12-03T02:05:26.618Z,5.5
2017-12-03T02:06:25.391Z,5.9
2017-12-03T02:07:25.475Z,5.4
2017-12-03T02:08:27.856Z,5.7
2017-12-03T02:09:25.948Z,5.5
2017-12-03T02:10:26.572Z,5.3
2017-12-03T02:11:26.961Z,5.5
2017-12-03T02:12:25.674Z,5.5
2017-12-03T02:13:26.122Z,5.7
2017-12-03T02:14:25.645Z,5.5
2017-12-03T02:15:26.460Z,5.4
2017-12-03T02:16:25.710Z,5.3
2017-12-03T02:17:26.101Z,5.6
2017-12-03T02:18:25.968Z,5.4
2017-12-03T02:19:26.209Z,5.4
2017-12-03T02:20:26.898Z,5.8
2017-12-03T02:21:26.291Z,5.2
2017-12-03T02:22:27.709Z,5.5
2017-12-03T02:23:25.684Z,5.7
2017-12-03T02:24:25.501Z,5.4
2017-12-03T02:25:25.931Z,5.4
2017-12-03T02:26:26.730Z,5.6
2017-12-03T02:27:25.800Z,5.4
2017-12-03T02:28:29.521Z,5.7
2017-12-03T02:29:26.580Z,5.5
2017-12-03T02:30:25.952Z,5.5
2017-12-03T02:31:25.709Z,5.4
2017-12-03T02:33:25.982Z,5.7
2017-12-03T02:34:26.545Z,5.5
2017-12-03T02:35:25.715Z,5.1
2017-12-03T02:36:26.368Z,5.4
2017-12-03T02:38:26.923Z,5.4
2017-12-03T02:39:26.308Z,5.6
2017-12-03T02:40:26.178Z,5.6
2017-12-03T02:41:25.739Z,5.8
2017-12-03T02:42:26.762Z,5.4
2017-12-03T02:43:26.370Z,5.6
2017-12-03T02:44:25.536Z,6.0
2017-12-03T02:45:26.302Z,5.3
2017-12-03T02:46:27.767Z,5.6
2017-12-03T02:47:26.974Z,5.6
2017-12-03T02:48:27.943Z,5.4
2017-12-03T02:49:25.804Z,5.6
2017-12-03T02:50:25.699Z,5.6
2017-12-03T02:51:25.661Z,5.3
2017-12-03T02:52:28.255Z,5.3
2017-12-03T02:53:26.027Z,5.4
2017-12-03T02:54:25.707Z,5.5
2017-12-03T02:55:26.334Z,5.4
2017-12-03T02:56:26.385Z,5.2
2017-12-03T02:57:27.439Z,5.2
2017-12-03T02:58:25.988Z,5.1
2017-12-03T02:59:27.427Z,5.2
2017-12-03T03:00:25.758Z,5.5
2017-12-03T03:01:26.924Z,5.1
2017-12-03T03:02:25.762Z,5.2
2017-12-03T03:03:27.268Z,5.3
2017-12-03T03:05:27.306Z,5.5
2017-12-03T03:07:26.305Z,5.5
2017-12-03T03:08:27.494Z,5.3
2017-12-03T03:09:28.642Z,5.7
2017-12-03T03:10:26.963Z,5.4
2017-12-03T03:11:28.888Z,5.2
2017-12-03T03:12:26.255Z,5.6
2017-12-03T03:13:26.214Z,5.5
2017-12-03T03:14:27.070Z,5.1
2017-12-03T03:15:27.402Z,5.3
2017-12-03T03:16:28.176Z,5.4
2017-12-03T03:17:25.827Z,5.5
2017-12-03T03:18:26.289Z,5.2
2017-12-03T03:19:25.636Z,5.2
2017-12-03T03:20:26.678Z,5.5
2017-12-03T03:21:26.527Z,5.6
2017-12-03T03:22:28.982Z,5.2
2017-12-03T03:23:27.399Z,5.2
2017-12-03T03:24:26.060Z,5.4
2017-12-03T03:25:26.480Z,5.4
2017-12-03T03:27:26.736Z,5.4
2017-12-03T03:28:25.609Z,5.6
2017-12-03T03:29:26.989Z,5.2
2017-12-03T03:30:25.814Z,5.3
2017-12-03T03:32:28.364Z,5.4
2017-12-03T03:33:25.850Z,5.1
2017-12-03T03:34:25.772Z,5.2
2017-12-03T03:35:26.064Z,5.3
2017-12-03T03:37:26.236Z,5.2
2017-12-03T03:38:26.739Z,5.0
2017-12-03T03:39:26.687Z,5.7
2017-12-03T03:40:29.571Z,5.4
2017-12-03T03:41:27.394Z,5.2
2017-12-03T03:42:28.452Z,5.1
2017-12-03T03:43:27.587Z,5.4
2017-12-03T03:45:25.614Z,5.2
2017-12-03T03:46:27.263Z,5.5
2017-12-03T03:47:26.590Z,5.3
2017-12-03T03:48:29.512Z,5.1
2017-12-03T03:49:26.243Z,5.2
2017-12-03T03:50:26.498Z,5.4
2017-12-03T03:51:27.531Z,5.4
2017-12-03T03:58:58.165Z,5.1
2017-12-03T03:59:09.091Z,5.1
2017-12-03T04:02:11.491Z,5.3
2017-12-03T04:04:09.612Z,5.3
2017-12-03T04:09:22.446Z,5.4
2017-12-03T04:10:21.857Z,5.1
2017-12-03T04:11:25.953Z,5.4
2017-12-03T04:12:22.883Z,5.3
2017-12-03T04:13:22.864Z,5.4
2017-12-03T04:14:22.691Z,5.3
2017-12-03T04:15:23.437Z,5.4
2017-12-03T04:16:25.580Z,5.3
2017-12-03T04:17:23.062Z,5.4
2017-12-03T04:18:22.371Z,5.2
2017-12-03T04:19:23.828Z,5.4
2017-12-03T04:20:22.545Z,5.1
2017-12-03T04:21:22.150Z,5.1
2017-12-03T04:22:23.270Z,5.0
2017-12-03T04:23:22.215Z,5.2
2017-12-03T04:24:22.764Z,5.1
2017-12-03T04:26:23.731Z,5.2
2017-12-03T04:27:22.246Z,5.2
2017-12-03T04:28:21.904Z,5.2
2017-12-03T04:29:22.241Z,5.0
2017-12-03T04:30:24.332Z,5.5
2017-12-03T04:31:22.467Z,5.2
2017-12-03T04:32:22.224Z,5.1
2017-12-03T04:33:22.493Z,5.1
2017-12-03T04:34:22.226Z,5.5
2017-12-03T04:35:21.938Z,5.1
2017-12-03T04:36:22.141Z,5.1
2017-12-03T04:37:21.669Z,5.1
2017-12-03T04:38:22.638Z,5.0
2017-12-03T04:39:21.901Z,5.2
2017-12-03T04:40:23.252Z,5.5
2017-12-03T04:41:21.888Z,5.6
2017-12-03T04:42:21.925Z,5.3
2017-12-03T04:43:23.849Z,5.4
2017-12-03T04:44:22.570Z,5.3
2017-12-03T04:45:22.969Z,5.6
2017-12-03T04:46:24.004Z,5.1
2017-12-03T04:47:22.478Z,5.3
2017-12-03T04:48:22.468Z,5.0
2017-12-03T04:49:24.211Z,5.2
2017-12-03T04:50:22.406Z,5.5
2017-12-03T04:51:21.967Z,5.1
2017-12-03T04:52:22.502Z,5.1
2017-12-03T04:53:22.323Z,4.7
2017-12-03T04:54:22.301Z,5.2
2017-12-03T04:55:23.236Z,5.1
2017-12-03T04:56:23.203Z,5.4
2017-12-03T04:57:22.486Z,5.1
2017-12-03T04:58:23.033Z,5.3
2017-12-03T04:59:22.782Z,5.3
2017-12-03T05:00:22.451Z,5.1
2017-12-03T05:01:22.202Z,5.2
2017-12-03T05:02:22.638Z,5.2
2017-12-03T05:03:21.733Z,5.4
2017-12-03T05:04:31.919Z,5.2
2017-12-03T05:05:21.911Z,5.2
2017-12-03T05:06:23.080Z,5.4
2017-12-03T05:07:22.282Z,5.0
2017-12-03T05:08:21.976Z,5.3
2017-12-03T05:09:22.187Z,4.9
2017-12-03T05:10:22.700Z,5.5
2017-12-03T05:11:22.851Z,5.3
2017-12-03T05:12:21.961Z,5.2
2017-12-03T05:13:21.946Z,5.5
2017-12-03T05:14:23.820Z,5.6
2017-12-03T05:15:21.981Z,5.4
2017-12-03T05:16:23.974Z,5.3
2017-12-03T05:17:22.253Z,5.4
2017-12-03T05:18:21.939Z,5.1
2017-12-03T05:19:21.961Z,5.2
2017-12-03T05:20:22.247Z,5.5
2017-12-03T05:21:22.241Z,5.4
2017-12-03T05:22:22.328Z,5.5
2017-12-03T05:23:21.980Z,5.0
2017-12-03T05:24:22.921Z,5.7
2017-12-03T05:25:22.242Z,5.2
2017-12-03T05:26:22.284Z,5.4
2017-12-03T05:27:22.778Z,5.3
2017-12-03T05:28:22.685Z,5.7
2017-12-03T05:29:24.870Z,5.4
2017-12-03T05:30:22.011Z,5.4
2017-12-03T05:31:25.385Z,5.3
2017-12-03T05:32:22.937Z,5.1
2017-12-03T05:33:22.452Z,5.0
2017-12-03T05:34:23.685Z,5.0
2017-12-03T05:35:22.984Z,5.6
2017-12-03T05:36:22.273Z,5.4
2017-12-03T05:37:23.119Z,5.5
2017-12-03T05:38:22.270Z,5.2
2017-12-03T05:39:23.698Z,5.6
2017-12-03T05:40:25.038Z,5.6
2017-12-03T05:41:22.045Z,5.7
2017-12-03T05:42:23.083Z,5.4
2017-12-03T05:43:22.577Z,5.3
2017-12-03T05:44:23.202Z,5.4
2017-12-03T05:45:26.122Z,5.1
2017-12-03T05:46:21.971Z,5.3
2017-12-03T05:47:22.391Z,5.8
2017-12-03T05:48:23.165Z,5.3
2017-12-03T05:49:24.883Z,5.9
2017-12-03T05:50:22.547Z,5.6
2017-12-03T05:51:22.973Z,5.3
2017-12-03T05:52:23.267Z,5.9
2017-12-03T05:53:23.111Z,5.5
2017-12-03T05:54:23.576Z,5.9
2017-12-03T05:55:22.657Z,5.8
2017-12-03T05:56:21.991Z,5.7
2017-12-03T05:57:22.609Z,5.8
2017-12-03T05:58:21.925Z,6.1
2017-12-03T05:59:23.287Z,5.5
2017-12-03T06:00:23.738Z,5.4
2017-12-03T06:01:24.790Z,5.7
2017-12-03T06:02:22.541Z,5.3
2017-12-03T06:03:21.861Z,5.9
2017-12-03T06:04:23.660Z,5.3
2017-12-03T06:05:23.486Z,5.3
2017-12-03T06:06:21.818Z,5.8
2017-12-03T06:07:23.368Z,5.7
2017-12-03T06:08:23.049Z,5.7
2017-12-03T06:09:22.084Z,5.5
2017-12-03T06:10:22.553Z,5.6
2017-12-03T06:11:22.707Z,5.7
2017-12-03T06:12:22.885Z,5.6
2017-12-03T06:13:22.358Z,5.5
2017-12-03T06:14:23.051Z,5.5
2017-12-03T06:15:23.614Z,5.5
2017-12-03T06:16:25.071Z,5.3
2017-12-03T06:17:25.187Z,5.3
2017-12-03T06:18:22.977Z,5.5
2017-12-03T06:19:22.572Z,5.6
2017-12-03T06:20:22.608Z,5.4
2017-12-03T06:21:23.307Z,5.3
2017-12-03T06:22:22.697Z,5.5
2017-12-03T06:23:22.718Z,5.2
2017-12-03T06:24:22.761Z,5.5
2017-12-03T06:25:23.579Z,5.2
2017-12-03T06:26:22.135Z,5.5
2017-12-03T06:27:23.098Z,5.1
2017-12-03T06:28:23.086Z,5.3
2017-12-03T06:29:24.696Z,5.2
2017-12-03T06:30:23.056Z,5.4
2017-12-03T06:31:23.066Z,5.5
2017-12-03T06:32:23.139Z,5.3
2017-12-03T06:33:22.891Z,5.7
2017-12-03T06:34:23.720Z,5.2
2017-12-03T06:35:24.968Z,5.1
2017-12-03T06:36:23.405Z,5.3
2017-12-03T06:37:23.636Z,5.3
2017-12-03T06:38:22.572Z,5.2
2017-12-03T06:39:23.003Z,5.2
2017-12-03T06:40:22.949Z,5.1
2017-12-03T06:42:24.205Z,5.3
2017-12-03T06:43:22.385Z,4.9
2017-12-03T06:44:24.472Z,5.0
2017-12-03T06:45:24.982Z,5.0
2017-12-03T06:46:34.508Z,5.0
2017-12-03T06:47:24.032Z,5.2
2017-12-03T06:48:24.322Z,4.9
2017-12-03T06:49:22.845Z,5.1
2017-12-03T06:50:22.328Z,5.2
2017-12-03T06:51:22.807Z,5.2
2017-12-03T06:52:25.206Z,4.8
2017-12-03T06:53:23.598Z,4.7
2017-12-03T06:54:22.654Z,5.3
2017-12-03T06:55:22.132Z,4.7
2017-12-03T06:56:32.026Z,5.0
2017-12-03T06:57:22.129Z,4.5
2017-12-03T06:58:23.407Z,5.0
2017-12-03T06:59:22.180Z,5.0
2017-12-03T07:00:23.812Z,5.6
2017-12-03T07:01:22.375Z,5.9
2017-12-03T07:02:22.472Z,7.1
2017-12-03T07:03:21.951Z,6.2
2017-12-03T07:04:22.464Z,6.0
2017-12-03T07:06:22.217Z,6.3
2017-12-03T07:07:21.989Z,5.7
2017-12-03T07:08:22.215Z,6.0
2017-12-03T07:09:22.550Z,5.9
2017-12-03T07:10:22.154Z,5.6
2017-12-03T07:11:22.018Z,5.8
2017-12-03T07:12:22.238Z,5.5
2017-12-03T07:13:22.233Z,5.2
2017-12-03T07:14:22.595Z,5.6
2017-12-03T07:15:22.231Z,5.5
2017-12-03T07:16:22.432Z,5.4
2017-12-03T07:17:22.332Z,5.8
2017-12-03T07:18:22.334Z,5.4
2017-12-03T07:19:22.248Z,5.6
2017-12-03T07:20:22.238Z,5.1
2017-12-03T07:21:23.598Z,5.0
2017-12-03T07:22:23.001Z,5.1
2017-12-03T07:23:22.748Z,5.3
2017-12-03T07:24:22.181Z,5.6
2017-12-03T07:25:21.958Z,5.1
2017-12-03T07:26:22.169Z,5.6
2017-12-03T07:27:21.990Z,5.1
2017-12-03T07:28:22.174Z,5.3
2017-12-03T07:29:24.487Z,5.2
2017-12-03T07:30:22.525Z,4.7
2017-12-03T07:31:22.504Z,5.7
2017-12-03T07:32:22.374Z,5.5
2017-12-03T07:33:22.502Z,5.2
2017-12-03T07:34:22.408Z,5.0
2017-12-03T07:35:22.488Z,5.3
2017-12-03T07:36:22.059Z,5.1
2017-12-03T07:37:22.584Z,5.1
2017-12-03T07:38:22.300Z,5.4
2017-12-03T07:39:22.593Z,5.3
2017-12-03T07:40:22.567Z,4.9
2017-12-03T07:41:22.994Z,5.2
2017-12-03T07:42:22.279Z,5.1
2017-12-03T07:43:22.203Z,5.4
2017-12-03T07:44:22.371Z,5.4
2017-12-03T07:45:22.204Z,5.0
2017-12-03T07:46:22.827Z,4.9
2017-12-03T07:47:22.763Z,5.2
2017-12-03T07:48:22.676Z,5.1
2017-12-03T07:49:22.327Z,4.9
2017-12-03T07:50:25.988Z,5.2
2017-12-03T07:51:22.999Z,4.9
2017-12-03T07:52:22.343Z,4.9
2017-12-03T07:54:24.956Z,4.7
2017-12-03T07:55:22.193Z,4.6
2017-12-03T07:56:22.345Z,5.0
2017-12-03T07:57:22.671Z,4.9
2017-12-03T07:58:22.269Z,4.8
2017-12-03T07:59:22.582Z,5.1
2017-12-03T08:00:22.652Z,5.5
2017-12-03T08:01:32.319Z,5.1
2017-12-03T08:02:22.468Z,5.0
2017-12-03T08:04:22.544Z,4.8
2017-12-03T08:05:22.113Z,5.0
2017-12-03T08:06:22.327Z,5.2
2017-12-03T08:07:22.616Z,5.1
2017-12-03T08:08:22.595Z,4.9
2017-12-03T08:09:22.717Z,5.1
2017-12-03T08:10:22.211Z,4.9
2017-12-03T08:11:22.756Z,5.1
2017-12-03T08:12:22.723Z,5.2
2017-12-03T08:13:23.057Z,5.1
2017-12-03T08:14:22.455Z,4.7
2017-12-03T08:15:22.285Z,4.9
2017-12-03T08:16:29.523Z,5.6
2017-12-03T08:17:23.831Z,6.0
2017-12-03T08:18:25.399Z,6.1
2017-12-03T08:19:29.892Z,6.3
2017-12-03T08:20:24.563Z,6.5
2017-12-03T08:21:25.300Z,6.6
2017-12-03T08:22:23.315Z,6.3
2017-12-03T08:23:23.636Z,7.1
2017-12-03T08:24:23.863Z,6.9
2017-12-03T08:25:23.623Z,7.1
2017-12-03T08:26:24.296Z,6.7
2017-12-03T08:27:22.311Z,7.0
2017-12-03T08:28:22.612Z,6.8
2017-12-03T08:29:22.904Z,7.3
2017-12-03T08:30:22.280Z,6.8
2017-12-03T08:31:22.720Z,6.7
2017-12-03T08:32:22.221Z,6.7
2017-12-03T08:33:22.631Z,14.1
2017-12-03T08:34:22.631Z,22.7
2017-12-03T08:35:22.614Z,24.4
2017-12-03T08:36:22.437Z,24.5
2017-12-03T08:37:22.420Z,22.0
2017-12-03T08:38:22.649Z,18.4
2017-12-03T08:39:22.406Z,17.5
2017-12-03T08:40:22.899Z,16.0
2017-12-03T08:41:22.160Z,14.9
2017-12-03T08:42:22.677Z,13.9
2017-12-03T08:43:22.707Z,13.0
2017-12-03T08:44:22.680Z,12.5
2017-12-03T08:45:23.072Z,10.9
2017-12-03T08:46:22.422Z,11.3
2017-12-03T08:47:22.997Z,11.2
2017-12-03T08:48:22.471Z,10.1
2017-12-03T08:49:22.679Z,9.8
2017-12-03T08:50:24.648Z,9.9
2017-12-03T08:51:22.345Z,9.6
2017-12-03T08:52:22.351Z,9.0
2017-12-03T08:53:22.334Z,8.7
2017-12-03T08:54:22.421Z,8.9
2017-12-03T08:55:22.441Z,8.6
2017-12-03T08:56:23.291Z,8.7
2017-12-03T08:57:23.570Z,8.2
2017-12-03T08:58:22.181Z,8.4
2017-12-03T08:59:22.429Z,8.6
2017-12-03T09:00:42.880Z,8.0
2017-12-03T09:01:22.852Z,8.5
2017-12-03T09:02:22.728Z,7.9
2017-12-03T09:03:22.387Z,7.8
2017-12-03T09:04:22.251Z,8.2
2017-12-03T09:05:22.469Z,8.4
2017-12-03T09:06:22.399Z,7.8
2017-12-03T09:07:22.365Z,8.2
2017-12-03T09:08:22.353Z,8.3
2017-12-03T09:09:22.610Z,8.5
2017-12-03T09:10:22.439Z,8.0
2017-12-03T09:11:22.617Z,7.8
2017-12-03T09:12:22.622Z,8.2
2017-12-03T09:13:22.346Z,8.3
2017-12-03T09:14:22.463Z,7.9
2017-12-03T09:15:22.412Z,8.4
2017-12-03T09:16:22.424Z,8.0
2017-12-03T09:17:22.414Z,7.6
2017-12-03T09:18:22.361Z,7.8
2017-12-03T09:19:22.429Z,7.8
2017-12-03T09:20:22.180Z,7.8
2017-12-03T09:21:22.192Z,7.6
2017-12-03T09:22:22.427Z,8.0
2017-12-03T09:23:22.696Z,7.9
2017-12-03T09:24:22.680Z,7.8
2017-12-03T09:25:22.458Z,8.1
2017-12-03T09:26:22.381Z,7.7
2017-12-03T09:27:22.447Z,7.4
2017-12-03T09:28:26.002Z,8.4
2017-12-03T09:34:19.670Z,7.0
2017-12-03T09:34:47.963Z,7.0
2017-12-03T09:35:37.471Z,7.4
2017-12-03T09:36:39.528Z,7.2
2017-12-03T09:37:37.977Z,7.5
2017-12-03T09:38:39.776Z,7.6
2017-12-03T09:39:38.776Z,7.0
2017-12-03T09:41:37.943Z,7.3
2017-12-03T09:42:37.659Z,7.2
2017-12-03T09:43:40.047Z,7.0
2017-12-03T09:44:37.123Z,7.0
2017-12-03T09:45:39.511Z,7.3
2017-12-03T09:46:36.139Z,6.8
2017-12-03T09:47:38.127Z,6.7
2017-12-03T09:48:41.615Z,6.8
2017-12-03T09:49:40.184Z,6.9
2017-12-03T09:50:41.838Z,6.6
2017-12-03T09:51:41.931Z,6.7
2017-12-03T09:52:42.226Z,6.7
2017-12-03T09:53:36.727Z,7.1
2017-12-03T09:54:40.098Z,6.2
2017-12-03T09:55:39.033Z,6.6
2017-12-03T09:56:36.344Z,6.0
2017-12-03T09:57:37.003Z,6.4
2017-12-03T09:58:36.670Z,6.0
2017-12-03T09:59:36.617Z,6.4
2017-12-03T10:00:37.272Z,6.4
2017-12-03T10:01:36.360Z,6.5
2017-12-03T10:02:36.438Z,6.4
2017-12-03T10:03:36.156Z,6.4
2017-12-03T10:04:36.142Z,6.4
2017-12-03T10:05:37.926Z,6.1
2017-12-03T10:06:36.300Z,6.0
2017-12-03T10:07:36.224Z,6.2
2017-12-03T10:08:36.523Z,6.0
2017-12-03T10:09:36.101Z,5.9
2017-12-03T10:11:39.199Z,6.0
2017-12-03T10:12:36.337Z,5.5
2017-12-03T10:13:36.446Z,5.9
2017-12-03T10:14:36.195Z,6.2
2017-12-03T10:15:36.359Z,5.5
2017-12-03T10:16:36.183Z,6.1
2017-12-03T10:17:36.016Z,5.9
2017-12-03T10:18:36.133Z,5.7
2017-12-03T10:19:36.379Z,5.9
2017-12-03T10:20:36.736Z,5.7
2017-12-03T10:21:36.224Z,5.7
2017-12-03T10:22:36.598Z,5.7
2017-12-03T10:23:36.576Z,5.3
2017-12-03T10:24:36.008Z,5.1
2017-12-03T10:25:36.160Z,5.3
2017-12-03T10:26:36.503Z,5.2
2017-12-03T10:28:36.247Z,5.5
2017-12-03T10:29:38.513Z,5.2
2017-12-03T10:30:36.597Z,5.1
2017-12-03T10:31:44.827Z,5.6
2017-12-03T10:32:36.562Z,5.2
2017-12-03T10:33:38.901Z,5.3
2017-12-03T10:34:41.709Z,5.3
2017-12-03T10:35:37.344Z,5.3
2017-12-03T10:36:38.726Z,5.2
2017-12-03T10:37:40.533Z,5.2
2017-12-03T10:38:37.895Z,4.9
2017-12-03T10:40:37.553Z,4.5
2017-12-03T10:41:38.519Z,5.2
2017-12-03T10:42:35.916Z,4.9
2017-12-03T10:43:36.131Z,5.0
2017-12-03T10:44:36.490Z,5.0
2017-12-03T10:45:36.100Z,5.3
2017-12-03T10:46:36.050Z,5.0
2017-12-03T10:47:36.314Z,4.8
2017-12-03T10:48:36.251Z,4.4
2017-12-03T10:49:36.274Z,5.0
2017-12-03T10:50:36.372Z,5.0
2017-12-03T10:51:43.307Z,4.8
2017-12-03T10:52:51.806Z,5.2
2017-12-03T10:54:10.624Z,4.8
2017-12-03T10:55:00.120Z,4.9
2017-12-03T10:56:10.548Z,4.6
2017-12-03T10:57:43.323Z,4.3
2017-12-03T10:58:52.705Z,4.6
2017-12-03T10:59:40.562Z,4.9
2017-12-03T11:00:36.518Z,4.2
2017-12-03T11:01:36.159Z,4.7
2017-12-03T11:02:38.485Z,4.9
2017-12-03T11:03:46.597Z,4.4
2017-12-03T11:04:39.595Z,4.7
2017-12-03T11:05:40.062Z,4.9
2017-12-03T11:06:38.834Z,4.6
2017-12-03T11:07:39.274Z,4.3
2017-12-03T11:08:41.099Z,4.6
2017-12-03T11:09:43.734Z,4.2
2017-12-03T11:10:41.080Z,4.1
2017-12-03T11:11:40.229Z,4.6
2017-12-03T11:12:38.972Z,4.5
2017-12-03T11:14:43.432Z,4.4
2017-12-03T11:15:41.976Z,4.5
2017-12-03T11:18:15.657Z,4.6
2017-12-03T11:18:27.102Z,4.6
2017-12-03T11:20:25.787Z,4.6
2017-12-03T11:21:34.096Z,4.5
2017-12-03T11:22:36.421Z,4.3
2017-12-03T11:23:32.031Z,4.5
2017-12-03T11:24:26.853Z,4.3
2017-12-03T11:25:29.245Z,4.3
2017-12-03T11:26:32.459Z,4.4
2017-12-03T11:27:27.633Z,4.2
2017-12-03T11:28:26.628Z,4.4
2017-12-03T11:29:28.918Z,4.2
2017-12-03T11:30:35.613Z,4.6
2017-12-03T11:31:34.273Z,4.4
2017-12-03T11:32:26.641Z,4.1
2017-12-03T11:34:26.564Z,4.6
2017-12-03T11:36:25.901Z,4.0
2017-12-03T11:37:26.925Z,4.3
2017-12-03T11:38:28.258Z,7.4
2017-12-03T11:39:40.261Z,6.2
2017-12-03T11:40:26.148Z,6.0
2017-12-03T11:42:25.945Z,5.4
2017-12-03T11:44:26.171Z,5.1
2017-12-03T11:47:08.493Z,5.2
2017-12-03T11:47:39.915Z,4.9
2017-12-03T11:48:23.040Z,5.1
2017-12-03T11:49:19.167Z,4.8
2017-12-03T11:50:19.326Z,5.2
2017-12-03T11:51:18.944Z,5.1
2017-12-03T11:52:19.102Z,5.2
2017-12-03T11:53:18.889Z,4.7
2017-12-03T11:54:19.192Z,5.0
2017-12-03T11:57:32.272Z,4.6
2017-12-03T11:58:32.224Z,4.7
2017-12-03T11:59:32.241Z,4.9
2017-12-03T12:00:32.286Z,4.9
2017-12-03T12:01:31.986Z,4.8
2017-12-03T12:02:31.972Z,4.5
2017-12-03T12:03:32.049Z,4.5
2017-12-03T12:04:31.897Z,4.5
2017-12-03T12:05:32.039Z,4.4
2017-12-03T12:06:32.303Z,4.4
2017-12-03T12:07:31.808Z,4.3
2017-12-03T12:08:32.033Z,4.7
2017-12-03T12:09:32.005Z,4.9
2017-12-03T12:10:32.061Z,4.7
2017-12-03T12:11:31.869Z,4.6
2017-12-03T12:12:32.550Z,4.9
2017-12-03T12:13:33.725Z,4.9
2017-12-03T12:14:32.719Z,4.7
2017-12-03T12:16:32.472Z,4.5
2017-12-03T12:17:32.381Z,4.5
2017-12-03T12:18:32.358Z,4.7
2017-12-03T12:19:31.911Z,4.5
2017-12-03T12:20:32.047Z,4.5
2017-12-03T12:21:32.064Z,4.5
2017-12-03T12:22:32.452Z,4.1
2017-12-03T12:23:32.702Z,4.3
2017-12-03T12:24:34.665Z,4.4
2017-12-03T12:25:32.321Z,4.4
2017-12-03T12:26:31.854Z,4.4
2017-12-03T12:27:32.174Z,4.4
2017-12-03T12:28:31.820Z,4.2
2017-12-03T12:29:31.873Z,4.4
2017-12-03T12:30:31.886Z,4.8
2017-12-03T12:31:31.837Z,4.3
2017-12-03T12:32:32.067Z,4.4
2017-12-03T12:33:32.075Z,4.3
2017-12-03T12:34:32.360Z,4.5
2017-12-03T12:36:32.066Z,4.4
2017-12-03T12:37:32.327Z,4.2
2017-12-03T12:38:32.078Z,4.3
2017-12-03T12:39:31.906Z,4.4
2017-12-03T12:40:32.760Z,4.4
2017-12-03T12:41:31.923Z,4.6
2017-12-03T12:42:32.091Z,4.3
2017-12-03T12:43:32.065Z,4.1
2017-12-03T12:44:32.300Z,4.5
2017-12-03T12:45:32.025Z,4.8
2017-12-03T12:46:32.074Z,4.6
2017-12-03T12:47:31.845Z,4.9
2017-12-03T12:48:32.319Z,4.4
2017-12-03T12:49:32.046Z,4.9
2017-12-03T12:51:32.048Z,4.6
2017-12-03T12:52:32.039Z,4.9
2017-12-03T12:53:32.361Z,4.8
2017-12-03T12:54:32.068Z,4.7
2017-12-03T12:55:32.042Z,5.0
2017-12-03T12:56:32.127Z,5.0
2017-12-03T12:57:31.952Z,5.2
2017-12-03T12:58:31.843Z,5.3
2017-12-03T12:59:32.754Z,4.9
2017-12-03T13:00:32.333Z,4.8
2017-12-03T13:01:32.051Z,4.9
2017-12-03T13:03:32.085Z,5.0
2017-12-03T13:04:32.123Z,5.4
2017-12-03T13:05:32.982Z,5.2
2017-12-03T13:06:33.076Z,4.9
2017-12-03T13:07:32.150Z,5.5
2017-12-03T13:09:32.701Z,5.0
2017-12-03T13:10:31.924Z,5.3
2017-12-03T13:12:32.414Z,5.3
2017-12-03T13:13:32.841Z,5.2
2017-12-03T13:14:31.895Z,5.1
2017-12-03T13:15:32.375Z,5.0
2017-12-03T13:16:32.696Z,5.1
2017-12-03T13:17:32.427Z,4.7
2017-12-03T13:18:32.572Z,4.9
2017-12-03T13:19:48.207Z,4.9
2017-12-03T13:20:32.688Z,5.1
2017-12-03T13:21:32.865Z,5.0
2017-12-03T13:22:32.120Z,5.0
2017-12-03T13:23:31.911Z,5.2
2017-12-03T13:24:34.170Z,4.4
2017-12-03T13:25:32.169Z,5.1
2017-12-03T13:26:32.207Z,4.7
2017-12-03T13:27:32.196Z,5.1
2017-12-03T13:28:32.131Z,5.4
2017-12-03T13:29:32.778Z,5.4
2017-12-03T13:30:32.163Z,5.1
2017-12-03T13:31:31.991Z,4.9
2017-12-03T13:32:32.428Z,5.0
2017-12-03T13:33:31.965Z,5.1
2017-12-03T13:34:32.412Z,5.0
2017-12-03T13:35:33.942Z,4.9
2017-12-03T13:36:31.996Z,5.2
2017-12-03T13:37:32.191Z,5.0
2017-12-03T13:38:32.145Z,5.0
2017-12-03T13:39:33.686Z,5.2
2017-12-03T13:40:32.154Z,6.0
2017-12-03T13:41:32.099Z,15.4
2017-12-03T13:42:32.189Z,15.3
2017-12-03T13:43:32.203Z,13.9
2017-12-03T13:45:32.188Z,13.3
2017-12-03T13:46:32.204Z,11.6
2017-12-03T13:47:32.993Z,10.5
2017-12-03T13:48:32.517Z,9.9
2017-12-03T13:49:32.865Z,9.8
2017-12-03T13:50:32.530Z,9.0
2017-12-03T13:51:33.384Z,8.1
2017-12-03T13:52:34.284Z,7.6
2017-12-03T13:53:35.577Z,8.0
2017-12-03T13:54:34.397Z,7.9
2017-12-03T13:55:36.825Z,8.2
2017-12-03T13:56:32.700Z,8.1
2017-12-03T13:57:32.415Z,7.5
2017-12-03T13:58:32.951Z,7.1
2017-12-03T13:59:32.913Z,6.9
2017-12-03T14:00:32.699Z,6.7
2017-12-03T14:01:32.793Z,7.1
2017-12-03T14:02:33.463Z,7.0
2017-12-03T14:03:32.278Z,6.8
2017-12-03T14:04:31.922Z,6.4
2017-12-03T14:05:32.896Z,6.7
2017-12-03T14:06:32.585Z,6.2
2017-12-03T14:08:32.009Z,6.2
2017-12-03T14:09:49.309Z,6.5
2017-12-03T14:10:34.772Z,6.2
2017-12-03T14:11:32.474Z,6.8
2017-12-03T14:12:31.998Z,6.2
2017-12-03T14:13:32.025Z,6.3
2017-12-03T14:14:33.136Z,6.2
2017-12-03T14:15:31.992Z,6.1
2017-12-03T14:16:36.345Z,6.0
2017-12-03T14:17:33.518Z,6.6
2017-12-03T14:18:32.746Z,6.0
2017-12-03T14:19:33.416Z,6.0
2017-12-03T14:20:32.256Z,5.8
2017-12-03T14:21:35.178Z,6.2
2017-12-03T14:22:34.182Z,5.8
2017-12-03T14:23:34.321Z,6.0
2017-12-03T14:24:33.090Z,6.2
2017-12-03T14:25:38.394Z,5.8
2017-12-03T14:26:33.024Z,6.0
2017-12-03T14:27:35.025Z,5.9
2017-12-03T14:28:33.585Z,5.4
2017-12-03T14:29:44.220Z,5.5
2017-12-03T14:30:32.660Z,5.3
2017-12-03T14:31:34.741Z,5.8
2017-12-03T14:32:34.254Z,5.4
2017-12-03T14:33:33.924Z,5.6
2017-12-03T14:34:32.614Z,5.6
2017-12-03T14:35:32.548Z,5.3
2017-12-03T14:36:32.278Z,5.6
2017-12-03T14:38:32.963Z,5.4
2017-12-03T14:40:34.362Z,5.4
2017-12-03T14:41:34.227Z,5.4
2017-12-03T14:42:34.925Z,5.2
2017-12-03T14:44:32.369Z,5.0
2017-12-03T14:45:32.114Z,4.8
2017-12-03T14:46:32.907Z,5.2
2017-12-03T14:47:32.100Z,4.7
2017-12-03T14:48:34.793Z,4.6